createdAt,value
2018-11-20T00:01:50.729Z,47.94
2018-11-20T00:04:15.585Z,47.93
2018-11-20T00:06:53.905Z,47.90
2018-11-20T00:09:26.476Z,47.86
2018-11-20T00:11:53.120Z,47.88
2018-11-20T00:14:18.263Z,47.90
2018-11-20T00:16:50.391Z,47.91
2018-11-20T00:19:19.437Z,47.89
2018-11-20T00:22:00.906Z,47.90
2018-11-20T00:24:25.774Z,47.95
2018-11-20T00:26:50.594Z,47.93
2018-11-20T00:29:10.337Z,47.90
2018-11-20T00:31:41.003Z,47.88
2018-11-20T00:34:07.249Z,47.90
2018-11-20T00:36:25.287Z,47.93
2018-11-20T00:38:50.487Z,47.95
2018-11-20T00:41:17.872Z,48.00
2018-11-20T00:43:53.124Z,47.99
2018-11-20T00:46:25.067Z,48.03
2018-11-20T00:48:56.088Z,48.08
2018-11-20T00:51:12.800Z,48.07
2018-11-20T00:53:39.064Z,48.03
2018-11-20T00:56:56.388Z,47.98
2018-11-20T00:59:12.047Z,47.98
2018-11-20T01:01:37.408Z,47.92
2018-11-20T01:04:19.284Z,47.92
2018-11-20T01:06:44.689Z,47.95
2018-11-20T01:09:17.197Z,47.96
2018-11-20T01:11:58.529Z,47.95
2018-11-20T01:14:23.857Z,47.98
2018-11-20T01:16:49.010Z,47.99
2018-11-20T01:19:13.796Z,48.00
2018-11-20T01:21:39.204Z,47.95
2018-11-20T01:24:04.536Z,47.91
2018-11-20T01:26:45.967Z,47.90
2018-11-20T01:29:18.483Z,47.90
2018-11-20T01:31:44.793Z,47.94
2018-11-20T01:34:29.590Z,47.97
2018-11-20T01:36:50.368Z,48.01
2018-11-20T01:39:15.743Z,48.01
2018-11-20T01:41:40.630Z,48.07
2018-11-20T01:44:22.141Z,48.05
2018-11-20T01:46:47.268Z,48.05
2018-11-20T01:49:19.502Z,47.99
2018-11-20T01:52:00.793Z,47.96
2018-11-20T01:54:25.977Z,47.97
2018-11-20T01:56:52.249Z,48.00
2018-11-20T01:59:18.957Z,47.98
2018-11-20T02:01:42.536Z,47.97
2018-11-20T02:04:08.875Z,47.95
2018-11-20T02:06:44.213Z,47.90
2018-11-20T02:09:09.261Z,47.91
2018-11-20T02:11:47.798Z,47.92
2018-11-20T02:14:42.575Z,47.90
2018-11-20T02:17:18.638Z,47.90
2018-11-20T02:19:53.763Z,47.88
2018-11-20T02:22:23.228Z,47.90
2018-11-20T02:24:58.554Z,47.89
2018-11-20T02:27:20.009Z,47.88
2018-11-20T02:29:45.171Z,47.86
2018-11-20T02:32:10.003Z,47.89
2018-11-20T02:34:39.114Z,47.85
2018-11-20T02:37:06.581Z,47.86
2018-11-20T02:39:29.121Z,47.86
2018-11-20T02:41:54.341Z,47.86
2018-11-20T02:44:19.359Z,47.86
2018-11-20T02:46:48.896Z,47.82
2018-11-20T02:49:23.931Z,47.83
2018-11-20T02:52:05.460Z,47.87
2018-11-20T02:54:30.820Z,47.90
2018-11-20T02:56:55.946Z,48.00
2018-11-20T02:59:21.111Z,48.03
2018-11-20T03:01:40.418Z,48.07
2018-11-20T03:04:05.484Z,48.11
2018-11-20T03:06:28.802Z,48.12
2018-11-20T03:08:51.082Z,48.13
2018-11-20T03:11:26.438Z,48.13
2018-11-20T03:13:46.642Z,48.12
2018-11-20T03:16:11.876Z,48.08
2018-11-20T03:18:33.569Z,48.12
2018-11-20T03:20:57.241Z,48.09
2018-11-20T03:23:22.311Z,48.14
2018-11-20T03:26:09.511Z,48.18
2018-11-20T03:28:30.952Z,48.14
2018-11-20T03:31:28.791Z,48.11
2018-11-20T03:34:10.401Z,48.14
2018-11-20T03:36:39.358Z,48.10
2018-11-20T03:39:04.444Z,48.10
2018-11-20T03:41:29.665Z,48.14
2018-11-20T03:44:04.956Z,48.13
2018-11-20T03:46:29.664Z,48.10
2018-11-20T03:49:13.851Z,48.11
2018-11-20T03:51:40.248Z,48.10
2018-11-20T03:54:12.579Z,48.11
2018-11-20T03:56:37.706Z,48.14
2018-11-20T03:59:22.349Z,48.20
2018-11-20T04:01:52.421Z,48.23
2018-11-20T04:04:15.269Z,48.23
2018-11-20T04:06:40.045Z,48.25
2018-11-20T04:09:08.854Z,48.27
2018-11-20T04:11:31.565Z,48.22
2018-11-20T04:13:55.721Z,48.23
2018-11-20T04:16:21.945Z,48.23
2018-11-20T04:18:42.386Z,48.23
2018-11-20T04:21:11.961Z,48.31
2018-11-20T04:23:36.625Z,48.31
2018-11-20T04:26:21.258Z,48.32
2018-11-20T04:28:39.384Z,48.33
2018-11-20T04:31:58.152Z,48.34
2018-11-20T04:34:30.659Z,48.38
2018-11-20T04:37:04.560Z,48.26
2018-11-20T04:39:30.765Z,48.33
2018-11-20T04:41:57.311Z,48.37
2018-11-20T04:44:20.546Z,48.37
2018-11-20T04:47:02.089Z,48.42
2018-11-20T04:49:31.818Z,48.42
2018-11-20T04:51:49.190Z,48.40
2018-11-20T04:54:16.100Z,48.46
2018-11-20T04:56:41.878Z,48.47
2018-11-20T04:59:03.565Z,48.46
2018-11-20T05:01:28.269Z,48.45
2018-11-20T05:03:54.524Z,48.38
2018-11-20T05:06:36.171Z,48.37
2018-11-20T05:09:14.368Z,48.31
2018-11-20T05:11:34.884Z,48.31
2018-11-20T05:14:00.668Z,48.29
2018-11-20T05:16:25.691Z,48.33
2018-11-20T05:18:57.245Z,48.34
2018-11-20T05:21:23.596Z,48.37
2018-11-20T05:23:56.167Z,48.37
2018-11-20T05:26:40.301Z,48.34
2018-11-20T05:29:22.570Z,48.35
2018-11-20T05:31:54.810Z,48.34
2018-11-20T05:34:33.132Z,48.33
2018-11-20T05:36:53.994Z,48.35
2018-11-20T05:39:16.027Z,48.35
2018-11-20T05:41:58.681Z,48.39
2018-11-20T05:44:13.956Z,48.37
2018-11-20T05:46:40.607Z,48.35
2018-11-20T05:49:16.227Z,48.38
2018-11-20T05:51:46.939Z,48.37
2018-11-20T05:54:22.230Z,48.35
2018-11-20T05:56:47.234Z,48.35
2018-11-20T05:59:06.632Z,48.41
2018-11-20T06:01:31.530Z,48.40
2018-11-20T06:03:48.131Z,48.44
2018-11-20T06:06:15.792Z,48.41
2018-11-20T06:08:40.673Z,48.43
2018-11-20T06:11:18.921Z,48.43
2018-11-20T06:13:35.380Z,48.42
2018-11-20T06:16:19.826Z,48.43
2018-11-20T06:18:45.138Z,48.46
2018-11-20T06:21:11.312Z,48.45
2018-11-20T06:23:28.782Z,48.42
2018-11-20T06:25:53.808Z,48.46
2018-11-20T06:28:19.246Z,48.48
2018-11-20T06:30:45.619Z,48.46
2018-11-20T06:33:11.886Z,48.47
2018-11-20T06:35:25.758Z,48.52
2018-11-20T06:37:50.657Z,48.54
2018-11-20T06:40:23.361Z,48.55
2018-11-20T06:43:08.374Z,48.57
2018-11-20T06:45:40.774Z,48.59
2018-11-20T06:48:07.741Z,48.61
2018-11-20T06:50:32.952Z,48.67
2018-11-20T06:52:59.290Z,48.74
2018-11-20T06:55:32.067Z,48.74
2018-11-20T06:58:01.400Z,48.79
2018-11-20T07:00:26.834Z,48.79
2018-11-20T07:02:51.780Z,48.79
2018-11-20T07:05:21.716Z,48.77
2018-11-20T07:07:41.994Z,48.76
2018-11-20T07:10:10.834Z,48.83
2018-11-20T07:12:31.737Z,48.83
2018-11-20T07:14:58.058Z,48.88
2018-11-20T07:17:35.007Z,48.89
2018-11-20T07:20:13.480Z,48.91
2018-11-20T07:22:52.449Z,48.89
2018-11-20T07:25:21.335Z,48.93
2018-11-20T07:27:44.761Z,48.91
2018-11-20T07:30:22.928Z,48.99
2018-11-20T07:32:55.556Z,49.02
2018-11-20T07:35:34.055Z,48.96
2018-11-20T07:38:03.420Z,48.99
2018-11-20T07:40:38.842Z,48.98
2018-11-20T07:43:03.829Z,48.98
2018-11-20T07:45:22.506Z,48.97
2018-11-20T07:47:48.473Z,48.95
2018-11-20T07:50:14.730Z,48.96
2018-11-20T07:52:43.949Z,48.97
2018-11-20T07:55:09.294Z,48.96
2018-11-20T07:57:47.859Z,48.96
2018-11-20T08:00:14.196Z,48.92
2018-11-20T08:02:43.726Z,48.94
2018-11-20T08:05:08.960Z,48.96
2018-11-20T08:07:38.775Z,49.02
2018-11-20T08:10:09.109Z,48.98
2018-11-20T08:12:26.661Z,49.02
2018-11-20T08:14:51.601Z,49.04
2018-11-20T08:17:20.938Z,49.04
2018-11-20T08:19:52.981Z,49.02
2018-11-20T08:22:21.924Z,49.01
2018-11-20T08:24:57.617Z,48.99
2018-11-20T08:27:16.802Z,49.00
2018-11-20T08:29:41.072Z,49.00
2018-11-20T08:32:07.422Z,49.02
2018-11-20T08:34:36.716Z,49.04
2018-11-20T08:37:01.938Z,49.00
2018-11-20T08:39:29.471Z,49.00
2018-11-20T08:42:01.696Z,49.01
2018-11-20T08:44:28.280Z,48.99
2018-11-20T08:46:54.985Z,49.00
2018-11-20T08:49:20.392Z,48.99
2018-11-20T08:51:46.705Z,48.93
2018-11-20T08:54:28.010Z,48.88
2018-11-20T08:56:53.200Z,48.87
2018-11-20T08:59:18.052Z,48.82
2018-11-20T09:01:52.919Z,48.80
2018-11-20T09:04:25.734Z,48.73
2018-11-20T09:06:51.799Z,48.76
2018-11-20T09:09:17.568Z,48.81
2018-11-20T09:11:42.866Z,48.80
2018-11-20T09:14:07.905Z,48.79
2018-11-20T09:16:26.274Z,48.75
2018-11-20T09:18:58.358Z,48.74
2018-11-20T09:21:19.115Z,48.74
2018-11-20T09:23:43.781Z,48.77
2018-11-20T09:26:08.481Z,48.78
2018-11-20T09:28:46.271Z,48.80
2018-11-20T09:31:27.858Z,48.80
2018-11-20T09:33:59.794Z,48.81
2018-11-20T09:36:29.531Z,48.83
2018-11-20T09:38:54.533Z,48.85
2018-11-20T09:41:36.378Z,48.83
2018-11-20T09:44:55.825Z,48.79
2018-11-20T09:47:21.138Z,48.82
2018-11-20T09:49:50.191Z,48.87
2018-11-20T09:52:15.512Z,48.89
2018-11-20T09:54:42.134Z,48.95
2018-11-20T09:57:14.395Z,48.90
2018-11-20T09:59:45.049Z,48.91
2018-11-20T10:02:10.395Z,48.94
2018-11-20T10:04:37.515Z,48.94
2018-11-20T10:07:03.255Z,48.93
2018-11-20T10:09:33.997Z,48.98
2018-11-20T10:12:03.154Z,48.98
2018-11-20T10:14:28.199Z,48.97
2018-11-20T10:17:09.302Z,48.91
2018-11-20T10:19:34.139Z,48.86
2018-11-20T10:22:03.637Z,48.82
2018-11-20T10:24:21.923Z,48.83
2018-11-20T10:26:54.561Z,48.85
2018-11-20T10:29:13.205Z,48.85
2018-11-20T10:31:38.109Z,48.77
2018-11-20T10:34:15.697Z,48.74
2018-11-20T10:36:52.624Z,48.73
2018-11-20T10:39:21.796Z,48.71
2018-11-20T10:41:46.729Z,48.70
2018-11-20T10:44:21.575Z,48.75
2018-11-20T10:46:54.318Z,48.73
2018-11-20T10:49:20.571Z,48.68
2018-11-20T10:51:39.742Z,48.64
2018-11-20T10:54:05.999Z,48.66
2018-11-20T10:56:35.236Z,48.59
2018-11-20T10:59:04.332Z,48.58
2018-11-20T11:01:29.561Z,48.60
2018-11-20T11:03:54.926Z,48.58
2018-11-20T11:06:19.682Z,48.56
2018-11-20T11:08:44.865Z,48.59
2018-11-20T11:11:06.828Z,48.55
2018-11-20T11:13:39.176Z,48.56
2018-11-20T11:16:12.922Z,48.55
2018-11-20T11:18:37.898Z,48.54
2018-11-20T11:21:04.588Z,48.46
2018-11-20T11:23:30.862Z,48.42
2018-11-20T11:26:08.040Z,48.47
2018-11-20T11:28:34.280Z,48.51
2018-11-20T11:30:59.517Z,48.47
2018-11-20T11:33:37.861Z,48.46
2018-11-20T11:36:10.605Z,48.45
2018-11-20T11:38:37.039Z,48.41
2018-11-20T11:41:01.910Z,48.40
2018-11-20T11:43:17.927Z,48.38
2018-11-20T11:45:53.514Z,48.31
2018-11-20T11:48:22.627Z,48.38
2018-11-20T11:50:47.786Z,48.36
2018-11-20T11:53:14.589Z,48.31
2018-11-20T11:55:40.029Z,48.30
2018-11-20T11:58:04.943Z,48.33
2018-11-20T12:00:31.995Z,48.32
2018-11-20T12:05:22.265Z,48.49
2018-11-20T12:07:54.533Z,48.52
2018-11-20T12:10:20.830Z,48.59
2018-11-20T12:12:54.095Z,48.56
2018-11-20T12:15:19.205Z,48.49
2018-11-20T12:17:44.194Z,48.45
2018-11-20T12:20:25.559Z,48.45
2018-11-20T12:23:04.122Z,48.38
2018-11-20T12:25:46.114Z,48.42
2018-11-20T12:28:11.418Z,48.40
2018-11-20T12:30:53.646Z,48.36
2018-11-20T12:33:37.493Z,48.31
2018-11-20T12:36:09.952Z,48.27
2018-11-20T12:38:51.597Z,48.29
2018-11-20T12:41:18.690Z,48.34
2018-11-20T12:43:44.265Z,48.35
2018-11-20T12:46:29.153Z,48.32
2018-11-20T12:48:58.549Z,48.30
2018-11-20T12:51:25.481Z,48.30
2018-11-20T12:53:50.038Z,48.36
2018-11-20T12:56:16.353Z,48.44
2018-11-20T12:58:41.001Z,48.46
2018-11-20T13:01:06.916Z,48.52
2018-11-20T13:03:32.938Z,48.59
2018-11-20T13:05:58.025Z,48.65
2018-11-20T13:08:23.307Z,48.70
2018-11-20T13:11:08.122Z,48.74
2018-11-20T13:13:53.362Z,48.73
2018-11-20T13:16:31.845Z,48.75
2018-11-20T13:18:57.634Z,48.80
2018-11-20T13:21:22.686Z,48.86
2018-11-20T13:23:49.491Z,48.89
2018-11-20T13:26:02.822Z,48.87
2018-11-20T13:28:35.179Z,48.86
2018-11-20T13:31:05.828Z,48.82
2018-11-20T13:33:30.954Z,48.83
2018-11-20T13:36:16.113Z,48.79
2018-11-20T13:38:57.570Z,48.77
2018-11-20T13:42:07.165Z,48.75
2018-11-20T13:44:32.909Z,48.77
2018-11-20T13:46:59.177Z,48.76
2018-11-20T13:49:31.923Z,48.75
2018-11-20T13:51:55.702Z,48.75
2018-11-20T13:54:22.707Z,48.76
2018-11-20T13:56:49.111Z,48.79
2018-11-20T13:59:24.476Z,48.83
2018-11-20T14:02:06.046Z,48.85
2018-11-20T14:04:32.393Z,48.81
2018-11-20T14:06:58.649Z,48.85
2018-11-20T14:09:35.651Z,48.85
2018-11-20T14:12:00.698Z,48.88
2018-11-20T14:14:24.273Z,48.88
2018-11-20T14:16:50.606Z,48.89
2018-11-20T14:19:19.820Z,48.91
2018-11-20T14:21:51.980Z,48.91
2018-11-20T14:24:23.992Z,48.84
2018-11-20T14:26:53.718Z,48.80
2018-11-20T14:29:20.022Z,48.79
2018-11-20T14:31:49.346Z,48.76
2018-11-20T14:34:14.805Z,48.80
2018-11-20T14:36:40.038Z,48.83
2018-11-20T14:39:08.263Z,48.83
2018-11-20T14:41:42.017Z,48.84
2018-11-20T14:44:24.150Z,48.94
2018-11-20T14:47:02.543Z,48.91
2018-11-20T14:49:31.818Z,48.94
2018-11-20T14:51:56.489Z,49.07
2018-11-20T14:54:28.911Z,49.09
2018-11-20T14:56:55.452Z,49.17
2018-11-20T14:59:22.495Z,49.18
2018-11-20T15:01:47.527Z,49.18
2018-11-20T15:04:12.218Z,49.18
2018-11-20T15:06:45.168Z,49.28
2018-11-20T15:09:03.965Z,49.27
2018-11-20T15:11:39.057Z,49.27
2018-11-20T15:14:05.820Z,49.32
2018-11-20T15:16:31.617Z,49.37
2018-11-20T15:19:03.793Z,49.39
2018-11-20T15:21:45.309Z,49.40
2018-11-20T15:24:20.919Z,49.36
2018-11-20T15:26:59.531Z,49.33
2018-11-20T15:29:41.212Z,49.35
2018-11-20T15:32:13.687Z,49.36
2018-11-20T15:34:38.497Z,49.36
2018-11-20T15:37:20.348Z,49.43
2018-11-20T15:39:40.034Z,49.46
2018-11-20T15:42:07.043Z,49.51
2018-11-20T15:44:32.986Z,49.56
2018-11-20T15:46:57.943Z,49.63
2018-11-20T15:49:35.148Z,49.70
2018-11-20T15:51:58.038Z,49.74
2018-11-20T15:54:22.973Z,49.84
2018-11-20T15:56:52.069Z,49.85
2018-11-20T15:59:17.130Z,49.92
2018-11-20T16:01:44.232Z,49.96
2018-11-20T16:04:09.344Z,49.99
2018-11-20T16:06:54.118Z,50.11
2018-11-20T16:09:32.989Z,50.13
2018-11-20T16:12:02.691Z,50.15
2018-11-20T16:14:27.753Z,50.15
2018-11-20T16:17:16.787Z,50.16
2018-11-20T16:19:44.211Z,50.15
2018-11-20T16:22:19.584Z,50.10
2018-11-20T16:24:52.707Z,50.10
2018-11-20T16:27:17.975Z,50.11
2018-11-20T16:29:47.247Z,50.06
2018-11-20T16:32:14.043Z,50.10
2018-11-20T16:34:40.578Z,50.16
2018-11-20T16:37:19.098Z,50.16
2018-11-20T16:39:45.411Z,50.22
2018-11-20T16:42:17.572Z,50.24
2018-11-20T16:44:55.473Z,50.32
2018-11-20T16:47:19.552Z,50.31
2018-11-20T16:49:51.518Z,50.31
2018-11-20T16:52:16.575Z,50.31
2018-11-20T16:54:41.901Z,50.31
2018-11-20T16:57:13.606Z,50.31
2018-11-20T16:59:49.083Z,50.30
2018-11-20T17:02:08.382Z,50.38
2018-11-20T17:04:40.512Z,50.45
2018-11-20T17:07:22.356Z,50.47
2018-11-20T17:10:00.626Z,50.53
2018-11-20T17:12:29.917Z,50.58
2018-11-20T17:14:58.830Z,50.63
2018-11-20T17:17:22.773Z,50.70
2018-11-20T17:19:45.226Z,50.80
2018-11-20T17:22:10.095Z,50.91
2018-11-20T17:24:35.305Z,50.97
2018-11-20T17:27:02.794Z,51.04
2018-11-20T17:29:39.459Z,51.11
2018-11-20T17:31:59.679Z,51.18
2018-11-20T17:34:25.054Z,51.34
2018-11-20T17:36:57.957Z,51.44
2018-11-20T17:39:35.513Z,51.62
2018-11-20T17:42:09.332Z,51.66
2018-11-20T17:44:42.041Z,51.75
2018-11-20T17:47:08.367Z,51.77
2018-11-20T17:49:40.736Z,51.81
2018-11-20T17:52:22.347Z,51.93
2018-11-20T17:54:51.565Z,51.94
2018-11-20T17:57:24.728Z,52.02
2018-11-20T17:59:48.354Z,52.05
2018-11-20T18:02:30.020Z,52.04
2018-11-20T18:04:55.133Z,52.08
2018-11-20T18:07:20.537Z,52.18
2018-11-20T18:09:49.761Z,52.21
2018-11-20T18:12:34.435Z,52.19
2018-11-20T18:15:16.066Z,52.21
2018-11-20T18:17:45.005Z,52.15
2018-11-20T18:20:23.511Z,52.11
2018-11-20T18:22:52.693Z,52.15
2018-11-20T18:25:31.372Z,52.17
2018-11-20T18:28:16.056Z,52.18
2018-11-20T18:30:41.295Z,52.22
2018-11-20T18:33:15.803Z,52.16
2018-11-20T18:35:43.390Z,52.18
2018-11-20T18:38:09.329Z,52.20
2018-11-20T18:40:54.310Z,52.17
2018-11-20T18:43:19.485Z,52.21
2018-11-20T18:45:51.725Z,52.22
2018-11-20T18:48:17.041Z,52.26
2018-11-20T18:50:52.862Z,52.32
2018-11-20T18:53:21.205Z,52.32
2018-11-20T18:55:46.729Z,52.32
2018-11-20T18:58:08.992Z,52.39
2018-11-20T19:00:32.894Z,52.44
2018-11-20T19:02:57.916Z,52.47
2018-11-20T19:05:23.412Z,52.51
2018-11-20T19:07:50.409Z,52.55
2018-11-20T19:10:19.892Z,52.64
2018-11-20T19:12:49.194Z,52.81
2018-11-20T19:15:30.676Z,52.92
2018-11-20T19:18:12.243Z,52.98
2018-11-20T19:20:28.595Z,53.02
2018-11-20T19:23:09.903Z,53.06
2018-11-20T19:25:39.829Z,53.23
2018-11-20T19:28:24.678Z,53.23
2018-11-20T19:30:55.315Z,53.39
2018-11-20T19:33:20.533Z,53.46
2018-11-20T19:35:59.091Z,53.56
2018-11-20T19:38:40.743Z,53.69
2018-11-20T19:41:19.577Z,53.69
2018-11-20T19:43:44.723Z,53.87
2018-11-20T19:46:11.054Z,53.91
2018-11-20T19:48:28.162Z,53.97
2018-11-20T19:50:57.757Z,54.01
2018-11-20T19:53:38.400Z,54.14
2018-11-20T19:56:04.622Z,54.11
2018-11-20T19:58:34.657Z,54.14
2018-11-20T20:01:00.308Z,54.23
2018-11-20T20:03:30.548Z,54.26
2018-11-20T20:06:09.129Z,54.23
2018-11-20T20:08:41.250Z,54.15
2018-11-20T20:11:06.455Z,54.15
2018-11-20T20:13:42.286Z,54.11
2018-11-20T20:16:21.028Z,54.14
2018-11-20T20:18:53.391Z,54.13
2018-11-20T20:21:22.599Z,54.33
2018-11-20T20:23:57.819Z,54.32
2018-11-20T20:26:22.751Z,54.36
2018-11-20T20:28:41.272Z,54.49
2018-11-20T20:31:11.592Z,54.60
2018-11-20T20:33:52.493Z,54.73
2018-11-20T20:36:17.485Z,54.77
2018-11-20T20:38:42.372Z,54.76
2018-11-20T20:41:23.856Z,54.75
2018-11-20T20:44:05.231Z,54.79
2018-11-20T20:46:29.306Z,54.81
2018-11-20T20:48:52.762Z,54.82
2018-11-20T20:51:19.583Z,54.80
2018-11-20T20:54:27.811Z,55.40
2018-11-20T20:56:55.817Z,55.27
2018-11-20T20:59:27.827Z,55.15
2018-11-20T21:01:58.763Z,55.05
2018-11-20T21:04:23.912Z,54.96
2018-11-20T21:06:55.810Z,54.91
2018-11-20T21:09:20.028Z,54.89
2018-11-20T21:11:51.273Z,54.85
2018-11-20T21:14:34.608Z,54.85
2018-11-20T21:16:52.476Z,54.82
2018-11-20T21:19:17.587Z,54.76
2018-11-20T21:21:41.403Z,54.75
2018-11-20T21:24:12.906Z,54.74
2018-11-20T21:26:38.367Z,54.76
2018-11-20T21:29:12.253Z,54.75
2018-11-20T21:31:31.361Z,54.71
2018-11-20T21:34:02.528Z,54.71
2018-11-20T21:36:30.922Z,54.76
2018-11-20T21:38:55.006Z,54.84
2018-11-20T21:41:19.150Z,54.83
2018-11-20T21:43:33.128Z,54.84
2018-11-20T21:45:56.835Z,54.82
2018-11-20T21:48:22.078Z,54.83
2018-11-20T21:50:50.004Z,54.81
2018-11-20T21:53:14.931Z,54.84
2018-11-20T21:55:48.985Z,54.89
2018-11-20T21:58:21.866Z,54.92
2018-11-20T22:01:09.785Z,54.92
2018-11-20T22:03:39.458Z,54.95
2018-11-20T22:06:13.390Z,54.97
2018-11-20T22:08:38.869Z,55.04
2018-11-20T22:11:03.948Z,55.12
2018-11-20T22:13:35.026Z,55.23
2018-11-20T22:15:59.256Z,55.32
2018-11-20T22:18:23.130Z,55.35
2018-11-20T22:20:46.843Z,55.40
2018-11-20T22:23:18.234Z,55.47
2018-11-20T22:25:43.295Z,55.44
2018-11-20T22:28:00.508Z,55.72
2018-11-20T22:30:40.375Z,55.68
2018-11-20T22:33:06.956Z,55.79
2018-11-20T22:35:34.812Z,55.85
2018-11-20T22:37:55.038Z,55.88
2018-11-20T22:40:14.455Z,55.85
2018-11-20T22:42:42.590Z,55.92
2018-11-20T22:45:13.552Z,56.05
2018-11-20T22:47:33.588Z,56.06
2018-11-20T22:49:46.064Z,56.08
2018-11-20T22:52:11.601Z,56.23
2018-11-20T22:54:37.794Z,56.28
2018-11-20T22:56:55.523Z,56.27
2018-11-20T22:59:35.910Z,56.28
2018-11-20T23:01:52.345Z,56.25
2018-11-20T23:04:26.158Z,56.20
2018-11-20T23:06:52.656Z,56.26
2018-11-20T23:08:58.727Z,56.21
2018-11-20T23:11:04.838Z,56.30
2018-11-20T23:13:11.310Z,56.40
2018-11-20T23:15:17.412Z,56.50
2018-11-20T23:17:23.573Z,56.50
2018-11-20T23:19:29.642Z,56.50
2018-11-20T23:21:35.878Z,56.59
2018-11-20T23:23:42.032Z,56.70
2018-11-20T23:25:48.098Z,56.75
2018-11-20T23:27:54.147Z,56.79
2018-11-20T23:30:00.918Z,56.86
2018-11-20T23:32:07.173Z,56.89
2018-11-20T23:34:13.365Z,56.94
2018-11-20T23:36:19.428Z,56.93
2018-11-20T23:38:25.509Z,56.95
2018-11-20T23:40:31.565Z,57.02
2018-11-20T23:42:37.860Z,57.05
2018-11-20T23:44:43.925Z,57.07
2018-11-20T23:46:50.312Z,57.11
2018-11-20T23:48:56.380Z,57.14
2018-11-20T23:51:02.498Z,57.14
2018-11-20T23:53:08.630Z,57.11
2018-11-20T23:55:15.524Z,57.08
2018-11-20T23:57:21.817Z,57.06
2018-11-20T23:59:26.466Z,57.04
